Time;durP1;ratioP1;P1;durP2;ratioP2;P2;SDS_P1;SDS_P2;PMS_P1;PMS_P2;Temp;Humidity;BMP_temperature;BMP_pressure;BME280_temperature;BME280_humidity;BME280_pressure;Samples;Min_cycle;Max_cycle;Signal;HPM_P1;HPM_P2
2021/08/30 00:00:21;;;;;;;4.47;2.93;;;18.60;74.90;;;;;;21026100;28;20024;-78
2021/08/30 00:10:22;;;;;;;5.93;3.22;;;18.60;74.90;;;;;;21058690;28;20036;-77
2021/08/30 00:20:22;;;;;;;4.60;3.50;;;18.60;74.90;;;;;;21041859;28;20081;-77
2021/08/30 00:30:23;;;;;;;5.10;4.00;;;18.60;74.90;;;;;;21058531;28;20032;-77
2021/08/30 00:40:23;;;;;;;5.43;3.50;;;18.60;74.90;;;;;;21074344;28;20270;-77
2021/08/30 00:50:27;;;;;;;5.18;3.15;;;18.60;74.90;;;;;;21056938;28;20064;-77
2021/08/30 01:00:27;;;;;;;6.07;3.70;;;18.60;74.90;;;;;;21072574;28;20470;-77
2021/08/30 01:10:39;;;;;;;5.40;3.63;;;18.60;74.90;;;;;;21056145;28;20036;-78
2021/08/30 01:20:51;;;;;;;4.65;3.05;;;18.60;74.90;;;;;;21089453;28;20129;-77
2021/08/30 01:30:52;;;;;;;5.75;3.83;;;18.60;74.90;;;;;;21070774;28;20036;-77
2021/08/30 01:40:53;;;;;;;5.07;3.38;;;18.60;74.90;;;;;;21070692;28;20028;-78
2021/08/30 01:50:53;;;;;;;4.53;3.25;;;18.50;74.80;;;;;;21052781;28;20040;-78
2021/08/30 02:00:54;;;;;;;6.10;3.10;;;18.60;74.90;;;;;;21052401;28;20028;-76
2021/08/30 02:10:58;;;;;;;5.18;3.47;;;18.50;74.80;;;;;;21067032;28;20039;-77
2021/08/30 02:21:02;;;;;;;11.38;3.22;;;18.60;74.90;;;;;;21068698;28;20028;-78
2021/08/30 02:31:02;;;;;;;5.13;3.38;;;18.60;74.90;;;;;;21083433;28;20040;-78
2021/08/30 02:41:03;;;;;;;6.70;3.35;;;18.50;74.80;;;;;;21048810;28;20039;-78
2021/08/30 02:51:04;;;;;;;4.30;2.90;;;18.50;74.80;;;;;;21031319;28;20042;-77
2021/08/30 03:01:04;;;;;;;5.07;2.97;;;18.50;74.70;;;;;;21030357;28;20039;-78
2021/08/30 03:11:05;;;;;;;5.50;3.25;;;18.50;74.70;;;;;;21046123;28;20406;-78
2021/08/30 03:21:09;;;;;;;5.40;3.33;;;18.50;74.70;;;;;;21061857;28;20058;-77
2021/08/30 03:31:10;;;;;;;4.05;3.22;;;18.50;74.60;;;;;;21077496;28;20093;-78
2021/08/30 03:41:12;;;;;;;5.55;3.30;;;18.50;74.60;;;;;;21043563;28;20534;-77
2021/08/30 03:51:13;;;;;;;4.97;3.63;;;18.50;74.60;;;;;;21042940;28;20044;-79
2021/08/30 04:01:15;;;;;;;4.97;3.47;;;18.50;74.60;;;;;;21059774;28;20090;-78
2021/08/30 04:11:16;;;;;;;6.00;2.97;;;18.50;74.50;;;;;;21044149;28;20031;-78
2021/08/30 04:21:17;;;;;;;6.45;3.42;;;18.50;74.50;;;;;;21058839;28;20105;-78
2021/08/30 04:31:18;;;;;;;5.07;3.42;;;18.50;74.50;;;;;;21041544;28;20486;-78
2021/08/30 04:41:19;;;;;;;5.00;3.45;;;18.50;74.50;;;;;;21057802;28;20541;-78
2021/08/30 04:51:20;;;;;;;4.60;3.15;;;18.50;74.50;;;;;;21057575;28;20043;-79
2021/08/30 05:01:21;;;;;;;5.00;3.47;;;18.50;74.50;;;;;;21023951;28;20028;-78
2021/08/30 05:11:24;;;;;;;4.68;3.47;;;18.50;74.40;;;;;;21040206;28;20070;-79
2021/08/30 05:21:24;;;;;;;5.82;3.63;;;18.50;74.40;;;;;;21073219;28;20036;-78
2021/08/30 05:31:26;;;;;;;5.28;3.47;;;18.60;74.50;;;;;;21056211;28;20458;-79
2021/08/30 05:41:27;;;;;;;5.63;3.90;;;18.50;74.40;;;;;;21044433;28;20039;-80
2021/08/30 05:51:28;;;;;;;4.63;3.28;;;18.50;74.40;;;;;;21069278;28;20100;-78
2021/08/30 06:01:29;;;;;;;4.93;3.40;;;18.50;74.40;;;;;;21087164;28;20043;-78
2021/08/30 06:11:29;;;;;;;4.78;3.53;;;18.50;74.40;;;;;;21084661;28;20070;-77
2021/08/30 06:21:30;;;;;;;5.18;3.15;;;18.50;74.40;;;;;;21049955;28;20558;-78
2021/08/30 06:31:30;;;;;;;4.68;3.30;;;18.50;74.40;;;;;;21082552;28;20494;-77
2021/08/30 06:41:31;;;;;;;5.43;3.53;;;18.50;74.40;;;;;;21084334;28;20169;-81
2021/08/30 06:51:33;;;;;;;3.85;2.67;;;18.50;74.30;;;;;;21066260;28;20047;-78
2021/08/30 07:01:33;;;;;;;5.40;3.53;;;18.50;74.40;;;;;;21070879;28;20537;-81
2021/08/30 07:11:34;;;;;;;5.90;3.60;;;18.50;74.50;;;;;;21048269;28;20463;-78
2021/08/30 07:21:35;;;;;;;5.18;3.47;;;18.50;74.50;;;;;;21063265;28;20039;-79
2021/08/30 07:31:37;;;;;;;4.17;2.97;;;18.50;74.40;;;;;;21081359;28;20435;-79
2021/08/30 07:41:37;;;;;;;4.35;3.05;;;18.50;74.40;;;;;;21042481;28;20046;-79
2021/08/30 07:51:44;;;;;;;4.93;2.88;;;18.50;74.40;;;;;;21059443;28;20040;-79
2021/08/30 08:01:45;;;;;;;5.15;3.50;;;18.50;74.30;;;;;;21052651;28;20428;-80
2021/08/30 08:11:51;;;;;;;4.65;3.10;;;18.50;74.30;;;;;;21040529;28;20448;-78
2021/08/30 08:21:54;;;;;;;4.55;3.05;;;18.50;74.30;;;;;;21058672;28;20050;-77
2021/08/30 08:31:57;;;;;;;5.50;3.33;;;18.50;74.40;;;;;;21041721;28;20410;-77
2021/08/30 08:41:59;;;;;;;9.07;2.80;;;18.50;74.50;;;;;;21059047;28;20036;-77
2021/08/30 08:52:01;;;;;;;6.80;3.15;;;18.50;74.50;;;;;;21040980;28;20737;-78
2021/08/30 09:02:02;;;;;;;6.72;3.08;;;18.50;74.40;;;;;;21074880;28;20252;-81
2021/08/30 09:12:04;;;;;;;5.82;2.70;;;18.50;74.40;;;;;;21015567;28;20039;-78
2021/08/30 09:22:06;;;;;;;4.43;2.65;;;18.60;74.50;;;;;;21086509;28;20090;-78
2021/08/30 09:32:14;;;;;;;4.45;2.90;;;18.60;74.40;;;;;;21048645;28;20101;-78
2021/08/30 09:42:17;;;;;;;4.78;2.78;;;18.60;74.30;;;;;;21052573;28;20055;-80
2021/08/30 09:52:34;;;;;;;3.03;2.20;;;18.60;74.20;;;;;;21036029;28;20039;-76
2021/08/30 10:02:34;;;;;;;3.30;2.22;;;18.60;74.10;;;;;;21085192;28;20043;-77
2021/08/30 10:12:37;;;;;;;4.03;2.40;;;18.60;74.10;;;;;;21309262;23;20053;-79
2021/08/30 10:22:37;;;;;;;3.38;2.58;;;18.60;74.10;;;;;;20901634;28;20040;-77
2021/08/30 10:32:44;;;;;;;3.92;2.28;;;18.60;74.10;;;;;;20917707;28;20040;-78
2021/08/30 10:42:56;;;;;;;3.45;2.35;;;18.60;74.00;;;;;;20917206;28;20095;-77
2021/08/30 10:53:05;;;;;;;4.05;2.38;;;18.60;73.90;;;;;;20915057;28;20044;-75
2021/08/30 11:03:06;;;;;;;3.78;2.17;;;18.60;74.00;;;;;;20879231;28;20437;-75
2021/08/30 11:13:06;;;;;;;4.43;2.75;;;18.60;74.10;;;;;;20911530;28;20098;-77
2021/08/30 11:23:12;;;;;;;5.13;2.38;;;18.60;74.10;;;;;;20915517;28;20029;-86
2021/08/30 11:33:24;;;;;;;3.93;2.60;;;18.60;74.10;;;;;;20929649;28;20041;-82
2021/08/30 11:43:25;;;;;;;4.93;1.75;;;18.70;74.10;;;;;;20914290;28;20048;-79
2021/08/30 11:53:25;;;;;;;3.75;2.00;;;18.60;74.00;;;;;;20907112;28;20069;-79
2021/08/30 12:03:26;;;;;;;3.42;2.33;;;18.60;74.00;;;;;;20912645;28;20033;-82
2021/08/30 12:13:33;;;;;;;3.70;2.05;;;18.70;74.00;;;;;;20895395;28;20041;-78
2021/08/30 12:23:38;;;;;;;3.38;2.30;;;18.60;74.00;;;;;;20894488;28;20041;-80
2021/08/30 12:33:39;;;;;;;3.45;2.30;;;18.60;74.00;;;;;;20910436;28;20053;-79
2021/08/30 12:43:39;;;;;;;3.00;2.10;;;18.60;74.00;;;;;;20891781;28;20068;-80
2021/08/30 12:53:41;;;;;;;3.33;1.90;;;18.60;73.90;;;;;;20921993;28;20479;-79
2021/08/30 13:03:41;;;;;;;3.08;1.92;;;18.70;73.90;;;;;;20910168;28;20463;-81
2021/08/30 13:13:42;;;;;;;6.40;1.77;;;18.70;73.80;;;;;;20905671;28;20102;-79
2021/08/30 13:23:45;;;;;;;3.55;2.05;;;18.70;73.80;;;;;;20908567;28;20045;-83
2021/08/30 13:33:47;;;;;;;6.95;2.50;;;18.70;73.80;;;;;;20894588;28;20045;-80
2021/08/30 13:43:47;;;;;;;4.03;2.58;;;18.70;73.80;;;;;;20926420;28;20510;-82
2021/08/30 13:53:48;;;;;;;7.20;2.97;;;18.70;73.90;;;;;;20906603;28;20040;-80
2021/08/30 14:03:50;;;;;;;5.28;2.65;;;18.80;73.90;;;;;;20920518;28;20386;-79
2021/08/30 14:13:50;;;;;;;4.82;2.25;;;18.80;73.90;;;;;;20915309;28;20033;-78
2021/08/30 14:23:52;;;;;;;3.15;2.03;;;18.80;73.90;;;;;;20899284;28;20037;-78
2021/08/30 14:33:53;;;;;;;3.60;2.40;;;18.90;73.90;;;;;;20915980;28;20052;-77
2021/08/30 14:43:54;;;;;;;3.28;2.17;;;18.90;73.90;;;;;;20897626;28;20195;-79
2021/08/30 14:54:02;;;;;;;3.40;2.13;;;18.80;73.80;;;;;;20897413;28;20132;-77
2021/08/30 15:04:02;;;;;;;2.97;1.88;;;18.90;73.90;;;;;;20913605;28;20746;-78
2021/08/30 15:14:04;;;;;;;3.03;2.08;;;19.00;73.90;;;;;;20895144;28;20048;-79
2021/08/30 15:24:05;;;;;;;3.80;2.22;;;18.90;73.70;;;;;;20878381;28;20446;-81
2021/08/30 15:34:06;;;;;;;6.88;2.15;;;18.90;73.60;;;;;;20895023;28;20033;-80
2021/08/30 15:44:09;;;;;;;3.67;2.05;;;19.00;73.50;;;;;;20911802;28;20040;-77
2021/08/30 15:54:09;;;;;;;2.85;2.10;;;19.10;73.40;;;;;;20908386;28;20092;-77
2021/08/30 16:04:11;;;;;;;3.80;2.20;;;19.00;73.40;;;;;;20891171;28;20041;-79
2021/08/30 16:14:11;;;;;;;3.78;2.22;;;19.00;73.40;;;;;;20890295;28;20287;-77
2021/08/30 16:24:13;;;;;;;3.47;2.20;;;19.00;73.50;;;;;;20905750;28;20091;-78
2021/08/30 16:34:15;;;;;;;3.92;2.20;;;19.00;73.60;;;;;;20872901;28;20043;-76
2021/08/30 16:44:20;;;;;;;3.33;1.88;;;18.90;73.60;;;;;;20873082;28;20490;-77
2021/08/30 16:54:21;;;;;;;2.83;2.10;;;18.90;73.70;;;;;;20888396;28;20040;-77
2021/08/30 17:04:25;;;;;;;5.55;2.53;;;18.90;73.80;;;;;;20905133;28;20037;-77
2021/08/30 17:14:26;;;;;;;3.58;1.92;;;18.90;73.90;;;;;;20875231;28;20059;-85
2021/08/30 17:24:28;;;;;;;3.22;2.20;;;18.90;73.90;;;;;;20894046;28;20111;-83
2021/08/30 17:34:28;;;;;;;4.75;2.97;;;18.90;73.80;;;;;;20865111;28;20041;-80
2021/08/30 17:44:30;;;;;;;4.95;2.35;;;18.90;73.90;;;;;;20875655;28;20048;-80
2021/08/30 17:54:32;;;;;;;3.65;2.33;;;18.90;73.80;;;;;;20924505;28;20032;-84
2021/08/30 18:04:33;;;;;;;2.83;2.00;;;18.90;73.80;;;;;;20906728;28;20075;-78
2021/08/30 18:14:36;;;;;;;6.32;2.40;;;18.90;73.80;;;;;;20923944;28;20427;-82
2021/08/30 18:24:36;;;;;;;4.60;2.83;;;18.90;73.80;;;;;;20878536;28;20060;-84
2021/08/30 18:34:37;;;;;;;6.40;2.72;;;18.80;73.70;;;;;;20907447;28;20433;-81
2021/08/30 18:44:37;;;;;;;4.07;2.50;;;18.80;73.70;;;;;;20919404;28;20033;-81
2021/08/30 18:54:38;;;;;;;4.13;2.65;;;18.80;73.70;;;;;;20918835;28;20044;-80
2021/08/30 19:04:38;;;;;;;6.43;2.97;;;18.80;73.70;;;;;;20917548;28;20068;-80
2021/08/30 19:14:39;;;;;;;4.38;2.45;;;18.80;73.70;;;;;;20931677;28;20681;-81
2021/08/30 19:24:40;;;;;;;4.95;2.30;;;18.80;73.70;;;;;;20892321;28;20057;-80
2021/08/30 19:34:41;;;;;;;4.72;2.70;;;18.80;73.70;;;;;;20915210;28;20045;-80
2021/08/30 19:44:42;;;;;;;4.75;2.50;;;18.80;73.70;;;;;;20880386;28;20036;-79
2021/08/30 19:54:45;;;;;;;4.90;2.50;;;18.80;73.80;;;;;;20915491;28;20124;-78
2021/08/30 20:04:45;;;;;;;4.20;2.53;;;18.80;73.70;;;;;;20863460;28;20036;-79
2021/08/30 20:14:46;;;;;;;3.65;2.40;;;18.80;73.80;;;;;;20914062;28;20117;-79
2021/08/30 20:24:47;;;;;;;4.53;2.78;;;18.70;73.60;;;;;;20912971;28;20029;-79
2021/08/30 20:34:49;;;;;;;4.40;2.72;;;18.70;73.60;;;;;;20895181;28;20032;-78
2021/08/30 20:44:50;;;;;;;3.95;2.72;;;18.70;73.60;;;;;;20861123;28;20037;-78
2021/08/30 20:54:53;;;;;;;3.47;2.33;;;18.70;73.60;;;;;;20910153;28;20029;-79
2021/08/30 21:04:53;;;;;;;3.42;2.10;;;18.70;73.60;;;;;;20910556;28;20376;-78
2021/08/30 21:14:54;;;;;;;3.17;2.10;;;18.70;73.50;;;;;;20905993;28;20037;-79
2021/08/30 21:24:54;;;;;;;3.15;2.35;;;18.70;73.50;;;;;;20875847;28;20494;-79
2021/08/30 21:34:55;;;;;;;4.22;1.95;;;18.70;73.50;;;;;;20908582;28;20040;-80
2021/08/30 21:44:56;;;;;;;3.97;2.78;;;18.70;73.50;;;;;;20924324;28;20534;-79
2021/08/30 21:54:57;;;;;;;4.03;2.28;;;18.80;73.50;;;;;;20922682;28;20060;-79
2021/08/30 22:04:57;;;;;;;3.15;2.05;;;18.70;73.50;;;;;;20888384;28;20040;-80
2021/08/30 22:14:58;;;;;;;3.83;2.50;;;18.70;73.50;;;;;;20922556;28;20048;-78
2021/08/30 22:24:59;;;;;;;3.22;2.08;;;18.70;73.40;;;;;;20886589;28;20518;-80
2021/08/30 22:34:59;;;;;;;3.22;2.22;;;18.70;73.40;;;;;;20936206;28;20067;-79
2021/08/30 22:45:00;;;;;;;3.95;2.72;;;18.70;73.40;;;;;;20886326;28;20037;-79
2021/08/30 22:55:02;;;;;;;3.90;2.45;;;18.60;73.30;;;;;;20869782;28;20360;-80
2021/08/30 23:05:03;;;;;;;5.28;2.45;;;18.70;73.40;;;;;;20917430;28;20041;-79
2021/08/30 23:15:04;;;;;;;3.95;2.60;;;18.70;73.30;;;;;;20883177;28;20390;-78
2021/08/30 23:25:07;;;;;;;3.63;2.22;;;18.60;73.30;;;;;;20882680;28;20033;-78
2021/08/30 23:35:07;;;;;;;4.15;2.63;;;18.60;73.30;;;;;;20915293;28;20037;-79
2021/08/30 23:45:08;;;;;;;5.10;2.40;;;18.60;73.20;;;;;;20880959;28;20045;-78
2021/08/30 23:55:09;;;;;;;3.90;2.42;;;18.60;73.20;;;;;;20914407;28;20391;-78
